Time;durP1;ratioP1;P1;durP2;ratioP2;P2;SDS_P1;SDS_P2;PMS_P1;PMS_P2;Temp;Humidity;BMP_temperature;BMP_pressure;BME280_temperature;BME280_humidity;BME280_pressure;Samples;Min_cycle;Max_cycle;Signal;HPM_P1;HPM_P2
2022/10/17 00:00:09;;;;;;;;;;;15.30;99.90;;;;;;5075385;28;20336;-70
2022/10/17 00:02:35;;;;;;;;;;;15.30;99.90;;;;;;5075817;28;19909;-70
2022/10/17 00:05:00;;;;;;;;;;;15.20;99.90;;;;;;5075514;28;19905;-70
2022/10/17 00:07:26;;;;;;;;;;;15.20;99.90;;;;;;5075362;28;20236;-70
2022/10/17 00:09:51;;;;;;;;;;;15.10;99.90;;;;;;5075673;28;19904;-70
2022/10/17 00:12:16;;;;;;;;;;;15.10;99.90;;;;;;5074947;28;20367;-70
2022/10/17 00:14:42;;;;;;;;;;;15.10;99.90;;;;;;5075223;28;19904;-70
2022/10/17 00:17:07;;;;;;;;;;;15.00;99.90;;;;;;5057113;28;20415;-70
2022/10/17 00:19:33;;;;;;;;;;;15.00;99.90;;;;;;5074904;28;20379;-70
2022/10/17 00:21:58;;;;;;;;;;;14.90;99.90;;;;;;5074911;28;19909;-70
2022/10/17 00:24:24;;;;;;;;;;;14.90;99.90;;;;;;5074865;28;20383;-70
2022/10/17 00:26:49;;;;;;;;;;;14.90;99.90;;;;;;5056819;28;19911;-70
2022/10/17 00:29:15;;;;;;;;;;;14.80;99.90;;;;;;5074726;28;19962;-70
2022/10/17 00:31:40;;;;;;;;;;;14.80;99.90;;;;;;5074921;28;19904;-70
2022/10/17 00:34:06;;;;;;;;;;;14.80;99.90;;;;;;5074907;28;19955;-70
2022/10/17 00:36:31;;;;;;;;;;;14.80;99.90;;;;;;5074813;28;19912;-70
2022/10/17 00:38:58;;;;;;;;;;;14.80;99.90;;;;;;5074802;28;20356;-70
2022/10/17 00:41:25;;;;;;;;;;;14.80;99.90;;;;;;5074592;28;19904;-70
2022/10/17 00:43:58;;;;;;;;;;;14.80;99.90;;;;;;5074672;28;19905;-70
2022/10/17 00:46:25;;;;;;;;;;;14.90;99.90;;;;;;5074784;28;19991;-70
2022/10/17 00:48:52;;;;;;;;;;;14.90;99.90;;;;;;5074711;28;19905;-70
2022/10/17 00:51:19;;;;;;;;;;;14.90;99.90;;;;;;5056554;28;20352;-70
2022/10/17 00:53:45;;;;;;;;;;;14.90;99.90;;;;;;5074371;28;19909;-70
2022/10/17 00:56:11;;;;;;;;;;;14.90;99.90;;;;;;5074142;28;20252;-70
2022/10/17 00:58:37;;;;;;;;;;;14.90;99.90;;;;;;5073694;28;19905;-69
2022/10/17 01:01:02;;;;;;;;;;;14.90;99.90;;;;;;5055780;28;19912;-70
2022/10/17 01:03:28;;;;;;;;;;;14.90;99.90;;;;;;5074119;28;20263;-71
2022/10/17 01:05:53;;;;;;;;;;;14.90;99.90;;;;;;5055932;28;20452;-71
2022/10/17 01:08:19;;;;;;;;;;;14.90;99.90;;;;;;5073535;28;19919;-69
2022/10/17 01:10:53;;;;;;;;;;;14.90;99.90;;;;;;5054467;28;19942;-69
2022/10/17 01:13:23;;;;;;;;;;;14.80;99.90;;;;;;5073676;28;19963;-72
2022/10/17 01:15:56;;;;;;;;;;;14.80;99.90;;;;;;5071007;28;19935;-71
2022/10/17 01:18:37;;;;;;;;;;;14.80;99.90;;;;;;5073634;28;19911;-70
2022/10/17 01:21:21;;;;;;;;;;;14.80;99.90;;;;;;5074158;28;20254;-73
2022/10/17 01:24:02;;;;;;;;;;;14.80;99.90;;;;;;5074003;28;19904;-73
2022/10/17 01:26:30;;;;;;;;;;;14.70;99.90;;;;;;5074185;28;19908;-71
2022/10/17 01:29:07;;;;;;;;;;;14.70;99.90;;;;;;5073609;28;19915;-73
2022/10/17 01:31:41;;;;;;;;;;;14.70;99.90;;;;;;5073426;28;19908;-71
2022/10/17 01:34:26;;;;;;;;;;;14.70;99.90;;;;;;5070810;28;20182;-72
2022/10/17 01:36:57;;;;;;;;;;;14.70;99.90;;;;;;5071486;28;19951;-73
2022/10/17 01:39:23;;;;;;;;;;;14.70;99.90;;;;;;5073669;28;20343;-71
2022/10/17 01:41:58;;;;;;;;;;;14.70;99.90;;;;;;5072975;28;19939;-72
2022/10/17 01:44:26;;;;;;;;;;;14.70;99.90;;;;;;5073188;28;19904;-72
2022/10/17 01:46:55;;;;;;;;;;;14.70;99.90;;;;;;5070724;28;20344;-71
2022/10/17 01:49:23;;;;;;;;;;;14.60;99.90;;;;;;5072707;28;20344;-72
2022/10/17 01:51:51;;;;;;;;;;;14.70;99.90;;;;;;5073419;28;19905;-71
2022/10/17 01:54:29;;;;;;;;;;;14.60;99.90;;;;;;5073132;28;19952;-72
2022/10/17 01:56:57;;;;;;;;;;;14.60;99.90;;;;;;5070868;28;19966;-70
2022/10/17 01:59:25;;;;;;;;;;;14.60;99.90;;;;;;5072784;28;19904;-72
2022/10/17 02:01:52;;;;;;;;;;;14.60;99.90;;;;;;5070416;28;19914;-72
2022/10/17 02:04:18;;;;;;;;;;;14.60;99.90;;;;;;5073095;28;19915;-72
2022/10/17 02:06:44;;;;;;;;;;;14.60;99.90;;;;;;5073127;28;19912;-71
2022/10/17 02:09:16;;;;;;;;;;;14.60;99.90;;;;;;5053726;28;19908;-72
2022/10/17 02:11:45;;;;;;;;;;;14.60;99.90;;;;;;5072698;28;20373;-71
2022/10/17 02:14:19;;;;;;;;;;;14.60;99.90;;;;;;5073258;28;19929;-73
2022/10/17 02:16:47;;;;;;;;;;;14.70;99.90;;;;;;5072986;28;19916;-71
2022/10/17 02:19:23;;;;;;;;;;;14.70;99.90;;;;;;5073166;28;19905;-70
2022/10/17 02:21:52;;;;;;;;;;;14.70;99.90;;;;;;5073067;28;20340;-70
2022/10/17 02:24:27;;;;;;;;;;;14.70;99.90;;;;;;5073133;28;19908;-70
2022/10/17 02:26:55;;;;;;;;;;;14.70;99.90;;;;;;5072737;28;19904;-70
2022/10/17 02:29:24;;;;;;;;;;;14.70;99.90;;;;;;5073438;28;19912;-70
2022/10/17 02:32:10;;;;;;;;;;;14.80;99.90;;;;;;5072700;28;19952;-71
2022/10/17 02:34:40;;;;;;;;;;;14.70;99.90;;;;;;5072313;28;19943;-72
2022/10/17 02:37:07;;;;;;;;;;;14.80;99.90;;;;;;5054660;28;19912;-71
2022/10/17 02:39:34;;;;;;;;;;;14.80;99.90;;;;;;5073378;28;19950;-72
2022/10/17 02:42:01;;;;;;;;;;;14.80;99.90;;;;;;5072801;28;19905;-71
2022/10/17 02:44:27;;;;;;;;;;;14.80;99.90;;;;;;5072484;28;19908;-71
2022/10/17 02:46:58;;;;;;;;;;;14.90;99.90;;;;;;5072720;28;19912;-73
2022/10/17 02:49:26;;;;;;;;;;;14.90;99.90;;;;;;5072824;28;19911;-71
2022/10/17 02:51:57;;;;;;;;;;;14.90;99.90;;;;;;5072724;28;20375;-72
2022/10/17 02:54:27;;;;;;;;;;;15.00;99.90;;;;;;5072583;28;19995;-70
2022/10/17 02:56:55;;;;;;;;;;;15.00;99.90;;;;;;5072405;28;19913;-71
2022/10/17 02:59:21;;;;;;;;;;;15.00;99.90;;;;;;5072545;28;19909;-70
2022/10/17 03:01:48;;;;;;;;;;;15.10;99.90;;;;;;5054625;28;19939;-70
2022/10/17 03:04:14;;;;;;;;;;;15.10;99.90;;;;;;5072628;28;19932;-70
2022/10/17 03:06:40;;;;;;;;;;;15.10;99.90;;;;;;5072964;28;19912;-71
2022/10/17 03:09:06;;;;;;;;;;;15.10;99.90;;;;;;5072707;28;19916;-72
2022/10/17 03:11:31;;;;;;;;;;;15.20;99.90;;;;;;5072532;28;19912;-71
2022/10/17 03:13:57;;;;;;;;;;;15.20;99.90;;;;;;5072014;28;20403;-71
2022/10/17 03:16:22;;;;;;;;;;;15.20;99.90;;;;;;5072315;28;19912;-70
2022/10/17 03:18:48;;;;;;;;;;;15.30;99.90;;;;;;5072509;28;20332;-70
2022/10/17 03:21:13;;;;;;;;;;;15.30;99.90;;;;;;5075010;28;19909;-68
2022/10/17 03:23:39;;;;;;;;;;;15.30;99.90;;;;;;5076609;28;20004;-72
2022/10/17 03:26:05;;;;;;;;;;;15.40;99.90;;;;;;5076334;28;19958;-70
2022/10/17 03:28:30;;;;;;;;;;;15.40;99.90;;;;;;5076324;28;19904;-70
2022/10/17 03:30:56;;;;;;;;;;;15.50;99.90;;;;;;5076617;28;19905;-69
2022/10/17 03:33:21;;;;;;;;;;;15.50;99.90;;;;;;5076188;28;19935;-70
2022/10/17 03:35:47;;;;;;;;;;;15.60;99.90;;;;;;5057877;28;19932;-72
2022/10/17 03:38:12;;;;;;;;;;;15.60;99.90;;;;;;5076540;28;19954;-70
2022/10/17 03:40:38;;;;;;;;;;;15.60;99.90;;;;;;5075520;28;19912;-70
2022/10/17 03:43:03;;;;;;;;;;;15.60;99.90;;;;;;5075771;28;19904;-70
2022/10/17 03:45:29;;;;;;;;;;;15.70;99.90;;;;;;5075941;28;19992;-72
2022/10/17 03:47:54;;;;;;;;;;;15.70;99.90;;;;;;5076306;28;20256;-71
2022/10/17 03:50:19;;;;;;;;;;;15.70;99.90;;;;;;5075840;28;19905;-70
2022/10/17 03:52:46;;;;;;;;;;;15.70;99.90;;;;;;5075547;28;19947;-70
2022/10/17 03:55:12;;;;;;;;;;;15.70;99.90;;;;;;5075400;28;19908;-70
2022/10/17 03:57:38;;;;;;;;;;;15.80;99.90;;;;;;5075561;28;19908;-69
2022/10/17 04:00:04;;;;;;;;;;;15.80;99.90;;;;;;5075763;28;19912;-69
2022/10/17 04:02:29;;;;;;;;;;;15.90;99.90;;;;;;5075764;28;20336;-70
2022/10/17 04:04:55;;;;;;;;;;;15.80;99.90;;;;;;5057705;28;19904;-69
2022/10/17 04:07:20;;;;;;;;;;;15.90;99.90;;;;;;5075719;28;19940;-70
2022/10/17 04:09:46;;;;;;;;;;;15.80;99.90;;;;;;5075516;28;19904;-70
2022/10/17 04:12:11;;;;;;;;;;;15.90;99.90;;;;;;5075354;28;20351;-70
2022/10/17 04:14:37;;;;;;;;;;;15.80;99.90;;;;;;5075550;28;19908;-70
2022/10/17 04:17:02;;;;;;;;;;;15.80;99.90;;;;;;5075252;28;19917;-70
2022/10/17 04:19:28;;;;;;;;;;;15.80;99.90;;;;;;5075350;28;19908;-70
2022/10/17 04:21:53;;;;;;;;;;;15.80;99.90;;;;;;5075468;28;19999;-70
2022/10/17 04:24:19;;;;;;;;;;;15.90;99.90;;;;;;5075310;28;19945;-69
2022/10/17 04:26:47;;;;;;;;;;;15.90;99.90;;;;;;5075228;28;19904;-70
2022/10/17 04:29:14;;;;;;;;;;;15.90;99.90;;;;;;5074814;28;19973;-69
2022/10/17 04:31:39;;;;;;;;;;;15.90;99.90;;;;;;5056080;28;20306;-70
2022/10/17 04:34:05;;;;;;;;;;;15.90;99.90;;;;;;5075374;28;19908;-71
2022/10/17 04:36:30;;;;;;;;;;;15.90;99.90;;;;;;5075179;28;20407;-70
2022/10/17 04:38:56;;;;;;;;;;;15.90;99.90;;;;;;5075040;28;19957;-70
2022/10/17 04:41:21;;;;;;;;;;;15.90;99.90;;;;;;5074918;28;19914;-70
2022/10/17 04:43:47;;;;;;;;;;;15.90;99.90;;;;;;5075029;28;20034;-70
2022/10/17 04:46:13;;;;;;;;;;;15.90;99.90;;;;;;5074949;28;19981;-70
2022/10/17 04:48:39;;;;;;;;;;;16.00;99.90;;;;;;5074913;28;20356;-71
2022/10/17 04:51:06;;;;;;;;;;;16.00;99.90;;;;;;5074871;28;19912;-70
2022/10/17 04:53:32;;;;;;;;;;;16.00;99.90;;;;;;5074657;28;19999;-71
2022/10/17 04:55:58;;;;;;;;;;;16.00;99.90;;;;;;5074499;28;19913;-70
2022/10/17 04:58:23;;;;;;;;;;;16.00;99.90;;;;;;5074452;28;19908;-70
2022/10/17 05:00:49;;;;;;;;;;;16.10;99.90;;;;;;5074699;28;19995;-70
2022/10/17 05:03:14;;;;;;;;;;;16.10;99.90;;;;;;5074734;28;19904;-70
2022/10/17 05:05:40;;;;;;;;;;;16.10;99.90;;;;;;5074350;28;19908;-70
2022/10/17 05:08:06;;;;;;;;;;;16.20;99.90;;;;;;5074945;28;19934;-71
2022/10/17 05:10:39;;;;;;;;;;;16.10;99.90;;;;;;5074434;28;19904;-70
2022/10/17 05:13:05;;;;;;;;;;;16.20;99.90;;;;;;5074195;28;19917;-70
2022/10/17 05:15:30;;;;;;;;;;;16.20;99.90;;;;;;5074587;28;19912;-71
2022/10/17 05:17:56;;;;;;;;;;;16.20;99.90;;;;;;5074110;28;19904;-71
2022/10/17 05:20:22;;;;;;;;;;;16.20;99.90;;;;;;5074321;28;19912;-70
2022/10/17 05:22:48;;;;;;;;;;;16.30;99.90;;;;;;5074394;28;20003;-70
2022/10/17 05:25:13;;;;;;;;;;;16.30;99.90;;;;;;5074387;28;20007;-70
2022/10/17 05:27:38;;;;;;;;;;;16.30;99.90;;;;;;5074312;28;19952;-70
2022/10/17 05:30:04;;;;;;;;;;;16.30;99.90;;;;;;5074443;28;20275;-71
2022/10/17 05:32:30;;;;;;;;;;;16.30;99.90;;;;;;5074264;28;19949;-70
2022/10/17 05:34:55;;;;;;;;;;;16.40;99.90;;;;;;5074049;28;19905;-70
2022/10/17 05:37:21;;;;;;;;;;;16.40;99.90;;;;;;5073835;28;20025;-70
2022/10/17 05:39:46;;;;;;;;;;;16.40;99.90;;;;;;5074101;28;19909;-70
2022/10/17 05:42:12;;;;;;;;;;;16.40;99.90;;;;;;5073630;28;19905;-70
2022/10/17 05:44:38;;;;;;;;;;;16.40;99.90;;;;;;5073717;28;20232;-70
2022/10/17 05:47:04;;;;;;;;;;;16.40;99.90;;;;;;5055820;28;20625;-71
2022/10/17 05:49:29;;;;;;;;;;;16.40;99.90;;;;;;5074281;28;19909;-70
2022/10/17 05:51:55;;;;;;;;;;;16.40;99.90;;;;;;5073871;28;19904;-70
2022/10/17 05:54:20;;;;;;;;;;;16.40;99.90;;;;;;5073908;28;19904;-71
2022/10/17 05:56:50;;;;;;;;;;;16.40;99.90;;;;;;5073714;28;20162;-70
2022/10/17 05:59:15;;;;;;;;;;;16.40;99.90;;;;;;5073989;28;19908;-70
2022/10/17 06:01:41;;;;;;;;;;;16.50;99.90;;;;;;5073584;28;19905;-70
2022/10/17 06:04:06;;;;;;;;;;;16.40;99.90;;;;;;5073197;28;19904;-70
2022/10/17 06:06:32;;;;;;;;;;;16.40;99.90;;;;;;5073166;28;20314;-70
2022/10/17 06:08:57;;;;;;;;;;;16.40;99.90;;;;;;5055321;28;20430;-70
2022/10/17 06:11:23;;;;;;;;;;;16.40;99.90;;;;;;5055311;28;19916;-70
2022/10/17 06:13:48;;;;;;;;;;;16.40;99.90;;;;;;5073322;28;19939;-71
2022/10/17 06:16:14;;;;;;;;;;;16.40;99.90;;;;;;5073554;28;19994;-70
2022/10/17 06:18:39;;;;;;;;;;;16.40;99.90;;;;;;5073576;28;20264;-71
2022/10/17 06:21:06;;;;;;;;;;;16.40;99.90;;;;;;5073443;28;19908;-71
2022/10/17 06:23:32;;;;;;;;;;;16.40;99.90;;;;;;5073363;28;19904;-70
2022/10/17 06:25:58;;;;;;;;;;;16.40;99.90;;;;;;5073196;28;20051;-70
2022/10/17 06:28:24;;;;;;;;;;;16.50;99.90;;;;;;5073100;28;19904;-70
2022/10/17 06:30:49;;;;;;;;;;;16.50;99.90;;;;;;5072142;28;20402;-71
2022/10/17 06:33:15;;;;;;;;;;;16.50;99.90;;;;;;5072695;28;19913;-70
2022/10/17 06:35:41;;;;;;;;;;;16.50;99.90;;;;;;5073097;28;19962;-71
2022/10/17 06:38:06;;;;;;;;;;;16.50;99.90;;;;;;5072792;28;19952;-70
2022/10/17 06:40:32;;;;;;;;;;;16.40;99.90;;;;;;5072922;28;19950;-70
2022/10/17 06:42:57;;;;;;;;;;;16.50;99.90;;;;;;5073145;28;20229;-71
2022/10/17 06:45:23;;;;;;;;;;;16.50;99.90;;;;;;5072864;28;19959;-71
2022/10/17 06:47:48;;;;;;;;;;;16.50;99.90;;;;;;5072763;28;19909;-71
2022/10/17 06:50:14;;;;;;;;;;;16.50;99.90;;;;;;5073034;28;19987;-71
2022/10/17 06:52:39;;;;;;;;;;;16.50;99.90;;;;;;5073000;28;19996;-70
2022/10/17 06:55:05;;;;;;;;;;;16.60;99.90;;;;;;5073699;28;19908;-70
2022/10/17 06:57:30;;;;;;;;;;;16.60;99.90;;;;;;5077000;28;20267;-71
2022/10/17 06:59:56;;;;;;;;;;;16.60;99.90;;;;;;5076504;28;19996;-70
2022/10/17 07:02:23;;;;;;;;;;;16.60;99.90;;;;;;5058783;28;20300;-71
2022/10/17 07:04:48;;;;;;;;;;;16.60;99.90;;;;;;5075509;28;19915;-71
2022/10/17 07:07:14;;;;;;;;;;;16.60;99.90;;;;;;5074635;28;19904;-71
2022/10/17 07:09:40;;;;;;;;;;;16.60;99.90;;;;;;5074846;28;19912;-70
2022/10/17 07:12:07;;;;;;;;;;;16.60;99.90;;;;;;5074798;28;19992;-70
2022/10/17 07:14:34;;;;;;;;;;;16.70;99.90;;;;;;5074988;28;20453;-70
2022/10/17 07:17:00;;;;;;;;;;;16.70;99.90;;;;;;5075481;28;19919;-70
2022/10/17 07:19:28;;;;;;;;;;;16.70;99.90;;;;;;5076305;28;19909;-70
2022/10/17 07:21:54;;;;;;;;;;;16.70;99.90;;;;;;5076301;28;19904;-70
2022/10/17 07:24:19;;;;;;;;;;;16.70;99.90;;;;;;5076753;28;20343;-70
2022/10/17 07:26:45;;;;;;;;;;;16.80;99.90;;;;;;5058275;28;20311;-71
2022/10/17 07:29:10;;;;;;;;;;;16.80;99.90;;;;;;5076496;28;19908;-71
2022/10/17 07:31:36;;;;;;;;;;;16.80;99.90;;;;;;5058279;28;19905;-70
2022/10/17 07:34:01;;;;;;;;;;;16.80;99.90;;;;;;5076497;28;19904;-70
2022/10/17 07:36:27;;;;;;;;;;;16.80;99.90;;;;;;5075844;28;19920;-71
2022/10/17 07:38:53;;;;;;;;;;;16.80;99.90;;;;;;5076166;28;19905;-70
2022/10/17 07:41:18;;;;;;;;;;;16.80;99.90;;;;;;5058337;28;19988;-70
2022/10/17 07:43:44;;;;;;;;;;;16.80;99.90;;;;;;5076323;28;20340;-70
2022/10/17 07:46:10;;;;;;;;;;;16.80;99.90;;;;;;5076498;28;19930;-70
2022/10/17 07:48:36;;;;;;;;;;;16.80;99.90;;;;;;5075831;28;19932;-70
2022/10/17 07:51:03;;;;;;;;;;;16.80;99.90;;;;;;5075988;28;20383;-70
2022/10/17 07:53:28;;;;;;;;;;;16.80;99.90;;;;;;5057920;28;19915;-70
2022/10/17 07:55:54;;;;;;;;;;;16.80;99.90;;;;;;5075655;28;19913;-69
2022/10/17 07:58:19;;;;;;;;;;;16.80;99.90;;;;;;5075999;28;20050;-69
2022/10/17 08:00:47;;;;;;;;;;;16.70;99.90;;;;;;5075831;28;19912;-70
2022/10/17 08:03:12;;;;;;;;;;;16.70;99.90;;;;;;5075605;28;20010;-69
2022/10/17 08:05:38;;;;;;;;;;;16.70;99.90;;;;;;5075630;28;20387;-69
2022/10/17 08:08:03;;;;;;;;;;;16.70;99.90;;;;;;5075579;28;19908;-71
2022/10/17 08:10:29;;;;;;;;;;;16.70;99.90;;;;;;5075665;28;19911;-71
2022/10/17 08:12:55;;;;;;;;;;;16.70;99.90;;;;;;5075690;28;19938;-69
2022/10/17 08:15:20;;;;;;;;;;;16.80;99.90;;;;;;5075599;28;19905;-70
2022/10/17 08:17:46;;;;;;;;;;;16.70;99.90;;;;;;5075527;28;20230;-70
2022/10/17 08:20:11;;;;;;;;;;;16.80;99.90;;;;;;5057744;28;20001;-70
2022/10/17 08:22:37;;;;;;;;;;;16.70;99.90;;;;;;5075129;28;19904;-71
2022/10/17 08:25:02;;;;;;;;;;;16.70;99.90;;;;;;5057336;28;20028;-71
2022/10/17 08:27:28;;;;;;;;;;;16.70;99.90;;;;;;5075645;28;19936;-70
2022/10/17 08:29:53;;;;;;;;;;;16.70;99.90;;;;;;5075620;28;19919;-70
2022/10/17 08:32:19;;;;;;;;;;;16.70;99.90;;;;;;5075115;28;20287;-71
2022/10/17 08:34:45;;;;;;;;;;;16.70;99.90;;;;;;5075052;28;20248;-71
2022/10/17 08:37:12;;;;;;;;;;;16.70;99.90;;;;;;5075056;28;20428;-71
2022/10/17 08:39:38;;;;;;;;;;;16.70;99.90;;;;;;5075307;28;19962;-72
2022/10/17 08:42:04;;;;;;;;;;;16.70;99.90;;;;;;5075249;28;19905;-72
2022/10/17 08:44:48;;;;;;;;;;;16.70;99.90;;;;;;5075134;28;20331;-71
2022/10/17 08:47:25;;;;;;;;;;;16.80;99.90;;;;;;5075101;28;20437;-72
2022/10/17 08:49:52;;;;;;;;;;;16.80;99.90;;;;;;5075419;28;20335;-71
2022/10/17 08:52:24;;;;;;;;;;;16.80;99.90;;;;;;5074836;28;19957;-71
2022/10/17 08:54:49;;;;;;;;;;;16.90;99.90;;;;;;5074717;28;19905;-72
2022/10/17 08:57:16;;;;;;;;;;;16.90;99.90;;;;;;5074546;28;19920;-72
2022/10/17 08:59:48;;;;;;;;;;;17.00;99.90;;;;;;5074727;28;19944;-72
2022/10/17 09:02:23;;;;;;;;;;;17.00;99.90;;;;;;5074587;28;20373;-72
2022/10/17 09:05:03;;;;;;;;;;;17.00;99.90;;;;;;5074513;28;20413;-73
2022/10/17 09:07:43;;;;;;;;;;;17.00;99.90;;;;;;5074918;28;19908;-72
2022/10/17 09:10:32;;;;;;;;;;;17.10;99.90;;;;;;5056563;28;19909;-72
2022/10/17 09:13:07;;;;;;;;;;;17.10;99.90;;;;;;5065748;28;19927;-72
2022/10/17 09:15:41;;;;;;;;;;;17.10;99.90;;;;;;5074624;28;19916;-72
2022/10/17 09:18:27;;;;;;;;;;;17.20;99.90;;;;;;5073974;28;19923;-72
2022/10/17 09:20:54;;;;;;;;;;;17.20;99.90;;;;;;5073447;28;19909;-72
2022/10/17 09:23:22;;;;;;;;;;;17.20;99.90;;;;;;5074237;28;19904;-72
2022/10/17 09:25:49;;;;;;;;;;;17.20;99.90;;;;;;5073841;28;19924;-72
2022/10/17 09:28:18;;;;;;;;;;;17.20;99.90;;;;;;5055986;28;20273;-73
2022/10/17 09:30:46;;;;;;;;;;;17.20;99.90;;;;;;5073786;28;19920;-73
2022/10/17 09:33:13;;;;;;;;;;;17.20;99.90;;;;;;5073888;28;19958;-73
2022/10/17 09:35:40;;;;;;;;;;;17.20;99.90;;;;;;5074126;28;19982;-73
2022/10/17 09:38:10;;;;;;;;;;;17.20;99.90;;;;;;5088939;28;19904;-73
2022/10/17 09:40:36;;;;;;;;;;;17.20;99.90;;;;;;5076419;28;19908;-73
2022/10/17 09:43:03;;;;;;;;;;;17.20;99.90;;;;;;5058380;28;19982;-73
2022/10/17 09:45:32;;;;;;;;;;;17.30;99.90;;;;;;5094108;28;20019;-73
2022/10/17 09:48:00;;;;;;;;;;;17.30;99.90;;;;;;5093887;28;19990;-73
2022/10/17 09:50:27;;;;;;;;;;;17.30;99.90;;;;;;5093982;28;19904;-73
2022/10/17 09:52:54;;;;;;;;;;;17.30;99.90;;;;;;5080024;28;19912;-73
2022/10/17 09:55:23;;;;;;;;;;;17.30;99.90;;;;;;5073444;28;19910;-73
2022/10/17 09:57:55;;;;;;;;;;;17.20;99.90;;;;;;5073250;28;19953;-74
2022/10/17 10:00:25;;;;;;;;;;;17.20;99.90;;;;;;5073502;28;19912;-73
2022/10/17 10:03:07;;;;;;;;;;;17.20;99.90;;;;;;5073437;28;20392;-74
2022/10/17 10:05:32;;;;;;;;;;;17.20;99.90;;;;;;5073385;28;20680;-73
2022/10/17 10:08:02;;;;;;;;;;;17.20;99.90;;;;;;5073371;28;19908;-73
2022/10/17 10:10:28;;;;;;;;;;;17.20;99.90;;;;;;5091467;28;19908;-73
2022/10/17 10:13:02;;;;;;;;;;;17.20;99.90;;;;;;5093630;28;19916;-72
2022/10/17 10:15:36;;;;;;;;;;;17.20;99.90;;;;;;5093527;28;19908;-72
2022/10/17 10:18:02;;;;;;;;;;;17.30;99.90;;;;;;5093337;28;19979;-72
2022/10/17 10:20:27;;;;;;;;;;;17.50;99.90;;;;;;5090251;28;19947;-73
2022/10/17 10:23:05;;;;;;;;;;;17.60;99.90;;;;;;5069097;28;19940;-73
2022/10/17 10:25:30;;;;;;;;;;;17.60;99.90;;;;;;5072762;28;20264;-73
2022/10/17 10:27:56;;;;;;;;;;;17.60;99.90;;;;;;5073134;28;19912;-74
2022/10/17 10:30:27;;;;;;;;;;;17.50;99.90;;;;;;5071941;28;19911;-74
2022/10/17 10:32:52;;;;;;;;;;;17.50;99.90;;;;;;5072614;28;20419;-74
2022/10/17 10:35:20;;;;;;;;;;;17.40;99.90;;;;;;5072705;28;19999;-74
2022/10/17 10:37:50;;;;;;;;;;;17.30;99.90;;;;;;5073094;28;19904;-73
2022/10/17 10:40:27;;;;;;;;;;;17.20;99.90;;;;;;5073138;28;19919;-73
2022/10/17 10:42:54;;;;;;;;;;;17.20;99.90;;;;;;5076441;28;19984;-73
2022/10/17 10:45:22;;;;;;;;;;;17.20;99.90;;;;;;5082742;28;19912;-73
2022/10/17 10:47:58;;;;;;;;;;;17.20;99.90;;;;;;5072501;28;19999;-73
2022/10/17 10:50:23;;;;;;;;;;;17.20;99.90;;;;;;5072762;28;19909;-73
2022/10/17 10:52:52;;;;;;;;;;;17.10;99.90;;;;;;5072663;28;19908;-73
2022/10/17 10:55:21;;;;;;;;;;;17.10;99.90;;;;;;5072771;28;20420;-70
2022/10/17 10:57:48;;;;;;;;;;;17.00;99.90;;;;;;5071280;28;19917;-73
2022/10/17 11:00:20;;;;;;;;;;;17.00;99.90;;;;;;5072214;28;19909;-72
2022/10/17 11:02:53;;;;;;;;;;;16.90;99.90;;;;;;5072639;28;20007;-72
2022/10/17 11:05:27;;;;;;;;;;;16.80;99.90;;;;;;5073228;28;19909;-70
2022/10/17 11:07:57;;;;;;;;;;;16.80;99.90;;;;;;5073005;28;19962;-70
2022/10/17 11:10:29;;;;;;;;;;;16.80;99.90;;;;;;5072401;28;19967;-70
2022/10/17 11:13:03;;;;;;;;;;;16.80;99.90;;;;;;5072429;28;19931;-71
2022/10/17 11:15:39;;;;;;;;;;;16.90;99.90;;;;;;5072369;28;19960;-71
2022/10/17 11:18:15;;;;;;;;;;;16.90;99.90;;;;;;5072795;28;19904;-70
2022/10/17 11:20:49;;;;;;;;;;;17.00;99.90;;;;;;5054787;28;20378;-70
2022/10/17 11:23:29;;;;;;;;;;;17.00;99.90;;;;;;5072768;28;19944;-71
2022/10/17 11:25:56;;;;;;;;;;;17.00;99.90;;;;;;5072633;28;19936;-70
2022/10/17 11:28:23;;;;;;;;;;;17.00;99.90;;;;;;5072304;28;20284;-71
2022/10/17 11:30:50;;;;;;;;;;;17.00;99.90;;;;;;5072816;28;19927;-71
2022/10/17 11:33:18;;;;;;;;;;;17.20;99.90;;;;;;5072776;28;19948;-71
2022/10/17 11:35:45;;;;;;;;;;;17.30;99.90;;;;;;5072525;28;19917;-71
2022/10/17 11:38:32;;;;;;;;;;;17.40;99.90;;;;;;5072555;28;19904;-70
2022/10/17 11:40:58;;;;;;;;;;;17.40;99.90;;;;;;5072783;28;20381;-71
2022/10/17 11:43:27;;;;;;;;;;;17.50;99.90;;;;;;5075215;28;19909;-71
2022/10/17 11:45:58;;;;;;;;;;;17.70;99.90;;;;;;5086659;28;19954;-71
2022/10/17 11:48:27;;;;;;;;;;;17.80;99.90;;;;;;5086391;28;19987;-71
2022/10/17 11:51:06;;;;;;;;;;;18.00;99.90;;;;;;5076048;28;19908;-71
2022/10/17 11:53:52;;;;;;;;;;;18.20;99.90;;;;;;5093074;28;19911;-71
2022/10/17 11:56:28;;;;;;;;;;;18.30;99.90;;;;;;5081827;28;19919;-71
2022/10/17 11:59:07;;;;;;;;;;;18.30;99.90;;;;;;5096241;28;19944;-70
2022/10/17 12:01:52;;;;;;;;;;;18.40;99.90;;;;;;5065117;28;19912;-71
2022/10/17 12:04:36;;;;;;;;;;;18.40;99.90;;;;;;5075871;28;19935;-70
2022/10/17 12:07:20;;;;;;;;;;;18.60;99.90;;;;;;5057668;28;20252;-71
2022/10/17 12:10:03;;;;;;;;;;;18.60;99.90;;;;;;5075754;28;19905;-71
2022/10/17 12:12:33;;;;;;;;;;;18.40;99.90;;;;;;5075226;28;19905;-71
2022/10/17 12:15:07;;;;;;;;;;;18.30;99.90;;;;;;5075402;28;20320;-70
2022/10/17 12:17:37;;;;;;;;;;;18.30;99.90;;;;;;5075371;28;19913;-70
2022/10/17 12:20:23;;;;;;;;;;;18.40;99.90;;;;;;5075823;28;19938;-70
2022/10/17 12:22:49;;;;;;;;;;;18.30;99.90;;;;;;5075474;28;20417;-70
2022/10/17 12:25:29;;;;;;;;;;;18.30;99.90;;;;;;5075519;28;20554;-70
2022/10/17 12:28:09;;;;;;;;;;;18.30;99.90;;;;;;5075265;28;19915;-70
2022/10/17 12:30:35;;;;;;;;;;;18.30;99.90;;;;;;5075474;28;19908;-70
2022/10/17 12:33:04;;;;;;;;;;;18.30;99.90;;;;;;5075466;28;19961;-71
2022/10/17 12:35:30;;;;;;;;;;;18.30;99.90;;;;;;5075188;28;19912;-70
2022/10/17 12:38:00;;;;;;;;;;;18.40;99.90;;;;;;5075425;28;20264;-70
2022/10/17 12:40:35;;;;;;;;;;;18.40;99.90;;;;;;5075149;28;19908;-71
2022/10/17 12:43:12;;;;;;;;;;;18.40;99.90;;;;;;5075308;28;19909;-70
2022/10/17 12:45:48;;;;;;;;;;;18.40;99.90;;;;;;5057192;28;19904;-71
2022/10/17 12:48:37;;;;;;;;;;;18.50;99.90;;;;;;5074949;28;19931;-70
2022/10/17 12:51:06;;;;;;;;;;;18.50;99.90;;;;;;5074833;28;20007;-70
2022/10/17 12:53:37;;;;;;;;;;;18.50;99.90;;;;;;5093074;28;19908;-71
2022/10/17 12:56:04;;;;;;;;;;;18.50;99.90;;;;;;5094919;28;20015;-71
2022/10/17 12:58:29;;;;;;;;;;;18.40;99.90;;;;;;5094861;28;19912;-70
2022/10/17 13:00:56;;;;;;;;;;;18.50;99.90;;;;;;5095068;28;19915;-71
2022/10/17 13:03:23;;;;;;;;;;;18.60;99.90;;;;;;5095343;28;20232;-71
2022/10/17 13:05:59;;;;;;;;;;;18.60;99.90;;;;;;5094979;28;20259;-71
2022/10/17 13:08:30;;;;;;;;;;;18.60;99.90;;;;;;5095439;28;19908;-70
2022/10/17 13:10:56;;;;;;;;;;;18.70;99.90;;;;;;5094848;28;19956;-71
2022/10/17 13:13:40;;;;;;;;;;;18.70;99.90;;;;;;5094456;28;19916;-71
2022/10/17 13:16:05;;;;;;;;;;;18.80;99.90;;;;;;5087568;28;19917;-70
2022/10/17 13:18:31;;;;;;;;;;;18.80;99.90;;;;;;5074467;28;19912;-71
2022/10/17 13:21:01;;;;;;;;;;;18.80;99.90;;;;;;5074600;28;20303;-71
2022/10/17 13:23:36;;;;;;;;;;;18.70;99.90;;;;;;5074363;28;19910;-72
2022/10/17 13:26:06;;;;;;;;;;;18.70;99.90;;;;;;5074024;28;20061;-72
2022/10/17 13:28:32;;;;;;;;;;;18.70;99.90;;;;;;5074214;28;19904;-71
2022/10/17 13:30:57;;;;;;;;;;;18.70;99.90;;;;;;5074217;28;19911;-70
2022/10/17 13:33:38;;;;;;;;;;;18.80;99.90;;;;;;5074187;28;19912;-71
2022/10/17 13:36:06;;;;;;;;;;;18.70;99.90;;;;;;5073947;28;19913;-71
2022/10/17 13:38:32;;;;;;;;;;;18.70;99.90;;;;;;5056010;28;20009;-71
2022/10/17 13:40:59;;;;;;;;;;;18.80;99.90;;;;;;5073893;28;19967;-71
2022/10/17 13:43:24;;;;;;;;;;;18.80;99.90;;;;;;5074028;28;19988;-71
2022/10/17 13:45:54;;;;;;;;;;;18.70;99.90;;;;;;5073757;28;19995;-70
2022/10/17 13:48:22;;;;;;;;;;;18.80;99.90;;;;;;5073738;28;19915;-71
2022/10/17 13:50:49;;;;;;;;;;;18.90;99.90;;;;;;5073751;28;19940;-71
2022/10/17 13:53:14;;;;;;;;;;;18.90;99.90;;;;;;5090010;28;20267;-71
2022/10/17 13:56:12;;;;;;;;;;;19.00;99.90;;;;;;5093641;28;19919;-71
2022/10/17 13:58:40;;;;;;;;;;;19.00;99.90;;;;;;5048675;28;19982;-71
2022/10/17 14:01:07;;;;;;;;;;;19.10;99.90;;;;;;5094157;28;20669;-71
2022/10/17 14:03:33;;;;;;;;;;;19.20;99.90;;;;;;5093311;28;20240;-71
2022/10/17 14:05:59;;;;;;;;;;;19.20;99.90;;;;;;5093705;28;19911;-71
2022/10/17 14:08:25;;;;;;;;;;;19.30;99.90;;;;;;5093747;28;20346;-71
2022/10/17 14:10:50;;;;;;;;;;;19.30;99.90;;;;;;5093711;28;20019;-71
2022/10/17 14:13:21;;;;;;;;;;;19.40;99.90;;;;;;5093544;28;19965;-71
2022/10/17 14:15:46;;;;;;;;;;;19.40;99.90;;;;;;5089414;28;20018;-71
2022/10/17 14:18:16;;;;;;;;;;;19.40;99.90;;;;;;5073228;28;19905;-71
2022/10/17 14:20:45;;;;;;;;;;;19.40;99.90;;;;;;5072917;28;20007;-71
2022/10/17 14:23:29;;;;;;;;;;;19.40;99.90;;;;;;5055257;28;19908;-71